createdAt,value
2023-04-14T00:03:30.867Z,1009.03
2023-04-14T00:08:37.952Z,1008.93
2023-04-14T00:13:45.133Z,1008.87
2023-04-14T00:18:52.312Z,1008.84
2023-04-14T00:23:59.524Z,1008.95
2023-04-14T00:29:06.780Z,1009.00
2023-04-14T00:34:13.987Z,1009.03
2023-04-14T00:39:21.280Z,1009.06
2023-04-14T00:44:28.483Z,1009.11
2023-04-14T00:49:44.927Z,1009.12
2023-04-14T00:54:58.733Z,1009.10
2023-04-14T01:00:10.844Z,1009.10
2023-04-14T01:06:02.488Z,1009.08
2023-04-14T01:15:41.146Z,1009.08
2023-04-14T01:16:31.347Z,1009.09
2023-04-14T01:21:37.292Z,1009.11
2023-04-14T01:26:51.142Z,1009.11
2023-04-14T01:32:06.392Z,1009.13
2023-04-14T01:37:27.248Z,1009.25
2023-04-14T01:42:37.462Z,1009.26
2023-04-14T01:47:43.600Z,1009.32
2023-04-14T01:53:32.701Z,1009.33
2023-04-14T01:58:48.505Z,1009.26
2023-04-14T02:04:02.484Z,1009.21
2023-04-14T02:09:09.639Z,1009.21
2023-04-14T02:14:26.425Z,1009.17
2023-04-14T02:20:09.199Z,1009.15
2023-04-14T02:27:00.128Z,1009.17
2023-04-14T02:30:37.924Z,1009.03
2023-04-14T02:36:29.427Z,1009.04
2023-04-14T02:41:36.849Z,1009.06
2023-04-14T02:46:44.143Z,1009.02
2023-04-14T02:51:51.636Z,1008.94
2023-04-14T02:56:59.055Z,1008.96
2023-04-14T03:02:08.374Z,1009.01
2023-04-14T03:07:17.096Z,1009.10
2023-04-14T03:12:33.674Z,1009.23
2023-04-14T03:18:16.113Z,1009.29
2023-04-14T03:23:58.890Z,1009.30
2023-04-14T03:29:06.273Z,1009.43
2023-04-14T03:34:13.652Z,1009.40
2023-04-14T03:39:56.818Z,1009.42
2023-04-14T03:45:05.344Z,1009.49
2023-04-14T03:50:17.905Z,1009.56
2023-04-14T03:55:37.405Z,1009.56
2023-04-14T04:01:00.437Z,1009.64
2023-04-14T04:06:07.405Z,1009.65
2023-04-14T04:11:33.939Z,1009.60
2023-04-14T04:16:55.092Z,1009.65
2023-04-14T04:22:14.476Z,1009.64
2023-04-14T04:27:51.134Z,1009.54
2023-04-14T04:33:10.071Z,1009.54
2023-04-14T04:38:27.773Z,1009.54
2023-04-14T04:43:41.897Z,1009.55
2023-04-14T04:50:03.712Z,1009.59
2023-04-14T04:54:17.659Z,1009.60
2023-04-14T05:00:04.889Z,1009.66
2023-04-14T05:05:12.377Z,1009.66
2023-04-14T05:10:45.832Z,1009.75
2023-04-14T05:16:19.110Z,1009.78
2023-04-14T05:22:17.610Z,1009.89
2023-04-14T05:27:12.564Z,1009.97
2023-04-14T05:32:07.712Z,1010.00
2023-04-14T05:37:18.643Z,1010.06
2023-04-14T05:42:30.871Z,1010.10
2023-04-14T05:48:18.119Z,1010.13
2023-04-14T05:54:05.496Z,1010.16
2023-04-14T06:04:38.031Z,1010.14
2023-04-14T06:10:25.570Z,1010.16
2023-04-14T06:15:39.117Z,1010.05
2023-04-14T06:20:46.669Z,1009.93
2023-04-14T06:26:07.166Z,1009.91
2023-04-14T06:31:18.256Z,1009.88
2023-04-14T06:36:30.809Z,1009.88
2023-04-14T06:41:43.183Z,1009.87
2023-04-14T06:46:55.281Z,1009.85
2023-04-14T06:52:01.030Z,1009.90
2023-04-14T06:57:08.194Z,1009.84
2023-04-14T07:02:15.431Z,1009.88
2023-04-14T07:07:22.581Z,1009.87
2023-04-14T07:12:29.747Z,1009.84
2023-04-14T07:17:37.106Z,1009.82
2023-04-14T07:22:44.247Z,1009.77
2023-04-14T07:28:02.641Z,1009.83
2023-04-14T07:32:58.622Z,1009.90
2023-04-14T07:38:06.387Z,1009.88
2023-04-14T07:43:13.574Z,1009.89
2023-04-14T07:48:20.735Z,1009.96
2023-04-14T07:53:27.926Z,1009.96
2023-04-14T07:58:35.095Z,1009.99
2023-04-14T08:03:45.195Z,1009.99
2023-04-14T08:08:49.953Z,1010.05
2023-04-14T08:13:57.302Z,1010.07
2023-04-14T08:19:05.049Z,1010.06
2023-04-14T08:24:11.690Z,1010.08
2023-04-14T08:29:18.933Z,1010.14
2023-04-14T08:34:28.589Z,1010.21
2023-04-14T08:39:33.338Z,1010.22
2023-04-14T08:44:40.590Z,1010.21
2023-04-14T08:49:47.880Z,1010.25
2023-04-14T08:54:55.145Z,1010.24
2023-04-14T09:00:02.436Z,1010.26
2023-04-14T09:05:09.567Z,1010.21
2023-04-14T09:10:16.826Z,1010.21
2023-04-14T09:15:24.005Z,1010.14
2023-04-14T09:20:40.261Z,1010.18
2023-04-14T09:25:39.322Z,1010.09
2023-04-14T09:30:46.621Z,1010.10
2023-04-14T09:35:53.829Z,1010.11
2023-04-14T09:41:01.214Z,1010.15
2023-04-14T09:46:08.511Z,1010.11
2023-04-14T09:51:15.593Z,1010.09
2023-04-14T09:56:22.820Z,1010.03
2023-04-14T10:01:30.122Z,1009.96
2023-04-14T10:06:37.272Z,1009.94
2023-04-14T10:11:44.570Z,1009.87
2023-04-14T10:16:51.776Z,1009.91
2023-04-14T10:21:58.983Z,1009.87
2023-04-14T10:27:06.276Z,1009.75
2023-04-14T10:32:13.434Z,1009.70
2023-04-14T10:37:20.671Z,1009.61
2023-04-14T10:42:30.077Z,1009.55
2023-04-14T10:47:37.356Z,1009.52
2023-04-14T10:52:44.528Z,1009.35
2023-04-14T10:57:51.763Z,1009.35
2023-04-14T11:02:59.089Z,1009.33
2023-04-14T11:08:06.185Z,1009.34
2023-04-14T11:13:13.725Z,1009.28
2023-04-14T11:18:20.648Z,1009.12
2023-04-14T11:23:27.838Z,1009.05
2023-04-14T11:28:35.060Z,1008.95
2023-04-14T11:33:42.822Z,1008.92
2023-04-14T11:38:49.540Z,1008.85
2023-04-14T11:43:56.833Z,1008.76
2023-04-14T11:49:04.089Z,1008.65
2023-04-14T11:54:11.288Z,1008.61
2023-04-14T11:59:18.449Z,1008.38
2023-04-14T12:04:25.808Z,1008.39
2023-04-14T12:09:32.907Z,1008.38
2023-04-14T12:14:40.114Z,1008.29
2023-04-14T12:19:47.269Z,1008.13
2023-04-14T12:24:54.484Z,1008.10
2023-04-14T12:30:01.792Z,1008.06
2023-04-14T12:35:08.956Z,1008.08
2023-04-14T12:40:16.129Z,1007.92
2023-04-14T12:45:23.462Z,1007.84
2023-04-14T12:50:30.693Z,1007.73
2023-04-14T12:55:37.894Z,1007.62
2023-04-14T13:00:45.235Z,1007.58
2023-04-14T13:05:52.492Z,1007.57
2023-04-14T13:10:59.737Z,1007.52
2023-04-14T13:16:14.873Z,1007.47
2023-04-14T13:21:15.343Z,1007.36
2023-04-14T13:26:22.540Z,1007.23
2023-04-14T13:31:29.993Z,1007.18
2023-04-14T13:36:37.198Z,1007.17
2023-04-14T13:41:44.972Z,1007.12
2023-04-14T13:46:52.378Z,1007.01
2023-04-14T13:51:59.597Z,1007.03
2023-04-14T13:57:06.851Z,1006.99
2023-04-14T14:02:14.212Z,1006.91
2023-04-14T14:07:21.455Z,1006.93
2023-04-14T14:12:28.678Z,1006.90
2023-04-14T14:17:35.941Z,1006.93
2023-04-14T14:22:43.127Z,1006.83
2023-04-14T14:27:50.341Z,1006.79
2023-04-14T14:32:57.608Z,1006.77
2023-04-14T14:38:04.827Z,1006.72
2023-04-14T14:43:12.098Z,1006.64
2023-04-14T14:48:19.308Z,1006.69
2023-04-14T14:53:28.224Z,1006.62
2023-04-14T14:58:35.428Z,1006.65
2023-04-14T15:03:42.844Z,1006.59
2023-04-14T15:08:50.573Z,1006.54
2023-04-14T15:13:57.791Z,1006.59
2023-04-14T15:19:05.076Z,1006.58
2023-04-14T15:24:12.273Z,1006.55
2023-04-14T15:29:19.573Z,1006.51
2023-04-14T15:34:26.713Z,1006.54
2023-04-14T15:39:33.973Z,1006.50
2023-04-14T15:44:41.157Z,1006.50
2023-04-14T15:49:50.167Z,1006.53
2023-04-14T15:54:55.597Z,1006.52
2023-04-14T16:00:02.874Z,1006.56
2023-04-14T16:05:10.069Z,1006.52
2023-04-14T16:10:17.142Z,1006.54
2023-04-14T16:15:24.351Z,1006.54
2023-04-14T16:20:31.546Z,1006.53
2023-04-14T16:25:38.734Z,1006.53
2023-04-14T16:30:45.993Z,1006.54
2023-04-14T16:35:53.208Z,1006.59
2023-04-14T16:41:00.434Z,1006.57
2023-04-14T16:46:07.841Z,1006.57
2023-04-14T16:51:15.087Z,1006.51
2023-04-14T16:56:22.314Z,1006.49
2023-04-14T17:01:29.611Z,1006.52
2023-04-14T17:06:36.824Z,1006.56
2023-04-14T17:11:44.363Z,1006.55
2023-04-14T17:16:51.837Z,1006.61
2023-04-14T17:21:59.327Z,1006.60
2023-04-14T17:27:06.896Z,1006.54
2023-04-14T17:32:14.685Z,1006.67
2023-04-14T17:37:22.320Z,1006.63
2023-04-14T17:42:29.851Z,1006.56
2023-04-14T17:47:37.644Z,1006.53
2023-04-14T17:52:45.304Z,1006.53
2023-04-14T17:57:52.909Z,1006.57
2023-04-14T18:03:00.583Z,1006.62
2023-04-14T18:08:08.246Z,1006.63
2023-04-14T18:13:15.618Z,1006.67
2023-04-14T18:18:23.967Z,1006.70
2023-04-14T18:23:30.379Z,1006.77
2023-04-14T18:33:44.822Z,1006.88
2023-04-14T18:38:52.314Z,1006.87
2023-04-14T18:43:59.890Z,1006.87
2023-04-14T18:49:07.610Z,1006.90
2023-04-14T18:54:15.354Z,1006.87
2023-04-14T18:59:23.039Z,1006.90
2023-04-14T19:04:30.682Z,1006.95
2023-04-14T19:09:38.570Z,1006.98
2023-04-14T19:14:46.506Z,1007.05
2023-04-14T19:19:54.228Z,1007.10
2023-04-14T19:25:01.955Z,1007.20
2023-04-14T19:30:11.501Z,1007.21
2023-04-14T19:35:19.800Z,1007.21
2023-04-14T19:40:27.370Z,1007.19
2023-04-14T19:45:35.263Z,1007.20
2023-04-14T19:50:43.381Z,1007.13
2023-04-14T19:55:51.037Z,1007.10
2023-04-14T20:01:01.146Z,1007.10
2023-04-14T20:06:08.897Z,1007.03
2023-04-14T20:11:16.636Z,1007.01
2023-04-14T20:16:24.362Z,1006.98
2023-04-14T20:21:31.936Z,1006.99
2023-04-14T20:26:39.293Z,1007.02
2023-04-14T20:31:46.782Z,1007.00
2023-04-14T20:36:54.378Z,1006.97
2023-04-14T20:42:01.764Z,1007.01
2023-04-14T20:47:08.961Z,1007.02
2023-04-14T20:52:16.221Z,1006.97
2023-04-14T20:57:23.413Z,1007.01
2023-04-14T21:02:30.936Z,1006.98
2023-04-14T21:07:39.979Z,1006.96
2023-04-14T21:15:24.879Z,1007.01
2023-04-14T21:17:54.456Z,1007.03
2023-04-14T21:23:01.627Z,1007.09
2023-04-14T21:28:08.936Z,1007.14
2023-04-14T21:33:16.201Z,1007.19
2023-04-14T21:38:23.389Z,1007.21
2023-04-14T21:43:30.608Z,1007.14
2023-04-14T21:48:37.750Z,1007.13
2023-04-14T21:53:44.936Z,1007.09
2023-04-14T21:58:52.159Z,1007.06
2023-04-14T22:03:59.653Z,1007.12
2023-04-14T22:09:07.355Z,1007.12
2023-04-14T22:14:14.669Z,1007.10
2023-04-14T22:19:21.984Z,1007.11
2023-04-14T22:24:29.339Z,1007.15
2023-04-14T22:29:40.127Z,1007.11
2023-04-14T22:34:47.405Z,1007.13
2023-04-14T22:39:54.853Z,1007.16
2023-04-14T22:45:02.132Z,1007.22
2023-04-14T22:50:09.322Z,1007.22
2023-04-14T22:55:16.480Z,1007.31
2023-04-14T23:00:23.820Z,1007.33
2023-04-14T23:05:31.086Z,1007.29
2023-04-14T23:10:38.329Z,1007.33
2023-04-14T23:15:45.610Z,1007.32
2023-04-14T23:20:52.830Z,1007.30
2023-04-14T23:26:00.172Z,1007.37
2023-04-14T23:31:07.695Z,1007.38
2023-04-14T23:36:34.806Z,1007.32
2023-04-14T23:42:15.049Z,1007.33
2023-04-14T23:47:25.564Z,1007.24
2023-04-14T23:53:19.717Z,1007.20
2023-04-14T23:59:00.140Z,1007.12
